Time;durP1;ratioP1;P1;durP2;ratioP2;P2;SDS_P1;SDS_P2;PMS_P1;PMS_P2;Temp;Humidity;BMP_temperature;BMP_pressure;BME280_temperature;BME280_humidity;BME280_pressure;Samples;Min_cycle;Max_cycle;Signal;HPM_P1;HPM_P2
2023/01/10 00:00:37;;;;;;;29.48;5.20;;;5.70;99.90;;;;;;4995209;28;20136;-85
2023/01/10 00:03:07;;;;;;;35.28;4.20;;;5.50;99.90;;;;;;4995115;28;20042;-84
2023/01/10 00:05:33;;;;;;;47.33;6.75;;;5.60;99.90;;;;;;4995377;28;20085;-84
2023/01/10 00:08:00;;;;;;;27.30;4.47;;;5.60;99.90;;;;;;4995456;28;20112;-84
2023/01/10 00:10:27;;;;;;;30.63;5.47;;;5.50;99.90;;;;;;4994912;28;20085;-84
2023/01/10 00:15:36;;;;;;;29.65;4.47;;;5.40;99.90;;;;;;4994932;28;20046;-84
2023/01/10 00:18:03;;;;;;;23.20;3.85;;;5.40;99.90;;;;;;4994874;28;20037;-84
2023/01/10 00:20:28;;;;;;;26.58;5.07;;;5.40;99.90;;;;;;4995173;28;20038;-84
2023/01/10 00:22:54;;;;;;;31.40;4.15;;;5.30;99.90;;;;;;4994577;28;20541;-85
2023/01/10 00:25:20;;;;;;;35.88;5.43;;;5.30;99.90;;;;;;4994500;28;20089;-85
2023/01/10 00:28:20;;;;;;;31.48;5.53;;;5.30;99.90;;;;;;4994587;28;20387;-84
2023/01/10 00:30:39;;;;;;;29.80;5.13;;;5.30;99.90;;;;;;4992931;28;20133;-84
2023/01/10 00:33:06;;;;;;;36.42;5.70;;;5.20;99.90;;;;;;4994613;28;20046;-84
2023/01/10 00:35:32;;;;;;;23.17;4.03;;;5.40;99.90;;;;;;4994634;28;20101;-85
2023/01/10 00:38:01;;;;;;;32.58;4.22;;;5.30;99.90;;;;;;4994448;28;20040;-84
2023/01/10 00:40:26;;;;;;;26.63;4.43;;;5.30;99.90;;;;;;4994621;28;20069;-84
2023/01/10 00:45:36;;;;;;;28.88;5.25;;;5.10;99.90;;;;;;4994417;28;20380;-84
2023/01/10 00:48:01;;;;;;;30.15;4.68;;;5.20;99.90;;;;;;4994191;28;20057;-84
2023/01/10 00:50:27;;;;;;;28.27;5.57;;;5.20;99.90;;;;;;4994179;28;20046;-84
2023/01/10 00:52:53;;;;;;;34.67;4.78;;;5.10;99.90;;;;;;4994288;28;20034;-85
2023/01/10 00:55:18;;;;;;;31.15;4.75;;;5.10;99.90;;;;;;4994519;28;20455;-84
2023/01/10 00:57:44;;;;;;;20.33;3.60;;;5.10;99.90;;;;;;4994152;28;20058;-84
2023/01/10 01:00:11;;;;;;;28.08;6.00;;;5.20;99.90;;;;;;4994002;28;20046;-84
2023/01/10 01:02:36;;;;;;;32.03;5.03;;;5.30;99.90;;;;;;4994099;28;20046;-84
2023/01/10 01:05:03;;;;;;;28.52;4.32;;;5.20;99.90;;;;;;4994092;28;20590;-84
2023/01/10 01:07:29;;;;;;;30.15;8.18;;;5.20;99.90;;;;;;4993825;28;20058;-84
2023/01/10 01:12:38;;;;;;;25.02;3.65;;;5.10;99.90;;;;;;4993933;28;20058;-84
2023/01/10 01:15:05;;;;;;;39.30;5.80;;;5.10;99.90;;;;;;4993609;28;20104;-84
2023/01/10 01:17:30;;;;;;;29.00;3.92;;;5.00;99.90;;;;;;4993929;28;20129;-84
2023/01/10 01:19:56;;;;;;;19.65;3.58;;;5.00;99.90;;;;;;4993940;28;20136;-85
2023/01/10 01:22:21;;;;;;;35.22;5.45;;;5.00;99.90;;;;;;4993688;28;20471;-84
2023/01/10 01:24:47;;;;;;;46.20;6.47;;;5.00;99.90;;;;;;4993527;28;20057;-85
2023/01/10 01:27:13;;;;;;;16.77;3.90;;;4.80;99.90;;;;;;4993381;28;20035;-84
2023/01/10 01:29:38;;;;;;;22.17;4.65;;;4.80;99.90;;;;;;4993674;28;20050;-84
2023/01/10 01:32:04;;;;;;;33.65;4.53;;;4.90;99.90;;;;;;4994447;28;20049;-85
2023/01/10 01:34:29;;;;;;;22.98;5.57;;;4.70;99.90;;;;;;4993358;28;20054;-84
2023/01/10 01:36:57;;;;;;;26.00;6.38;;;4.90;99.90;;;;;;4993648;28;20050;-84
2023/01/10 01:39:23;;;;;;;32.85;4.72;;;4.90;99.90;;;;;;4993704;28;20104;-84
2023/01/10 01:41:57;;;;;;;27.50;4.93;;;4.80;99.90;;;;;;4993373;28;20507;-84
2023/01/10 01:44:28;;;;;;;32.60;4.97;;;5.00;99.90;;;;;;4993980;28;20092;-84
2023/01/10 01:47:07;;;;;;;23.65;4.70;;;5.00;99.90;;;;;;4993499;28;20089;-84
2023/01/10 01:49:43;;;;;;;24.75;4.55;;;5.10;99.90;;;;;;4993591;28;20078;-85
2023/01/10 01:52:15;;;;;;;28.23;6.10;;;4.90;99.90;;;;;;4993364;28;20117;-85
2023/01/10 01:54:41;;;;;;;18.97;5.40;;;5.00;99.90;;;;;;4992992;28;20050;-84
2023/01/10 01:57:12;;;;;;;19.52;4.43;;;4.90;99.90;;;;;;4993040;28;20336;-85
2023/01/10 01:59:42;;;;;;;28.00;5.90;;;4.90;99.90;;;;;;4993436;28;20076;-84
2023/01/10 02:02:13;;;;;;;24.75;4.20;;;5.00;99.90;;;;;;4993238;28;20050;-84
2023/01/10 02:04:51;;;;;;;33.35;5.32;;;5.20;99.90;;;;;;4993183;28;20081;-84
2023/01/10 02:07:17;;;;;;;27.05;5.45;;;5.20;99.90;;;;;;4993233;28;20052;-84
2023/01/10 02:09:49;;;;;;;32.95;5.63;;;5.30;99.90;;;;;;4992600;28;20105;-84
2023/01/10 02:12:15;;;;;;;34.72;5.88;;;5.40;99.90;;;;;;4993035;28;20042;-84
2023/01/10 02:14:43;;;;;;;34.55;6.20;;;5.30;99.90;;;;;;4992815;28;20486;-84
2023/01/10 02:17:10;;;;;;;30.77;6.57;;;5.30;99.90;;;;;;4993276;28;20478;-84
2023/01/10 02:19:50;;;;;;;26.40;5.30;;;5.40;99.90;;;;;;4992788;28;20054;-84
2023/01/10 02:22:15;;;;;;;30.08;5.40;;;5.30;99.90;;;;;;4992801;28;20054;-85
2023/01/10 02:24:53;;;;;;;22.40;4.20;;;5.40;99.90;;;;;;4992675;28;20051;-84
2023/01/10 02:27:48;;;;;;;27.08;4.35;;;5.40;99.90;;;;;;4992811;28;20485;-85
2023/01/10 02:30:16;;;;;;;22.60;4.03;;;5.50;99.90;;;;;;4990597;28;20054;-85
2023/01/10 02:32:51;;;;;;;25.05;3.83;;;5.40;99.90;;;;;;4992961;28;20055;-86
2023/01/10 02:35:29;;;;;;;17.90;3.83;;;5.50;99.90;;;;;;4992753;28;20053;-86
2023/01/10 02:38:15;;;;;;;18.60;3.75;;;5.40;99.90;;;;;;4993086;28;20486;-85
2023/01/10 02:41:15;;;;;;;26.30;4.05;;;5.50;99.90;;;;;;4992683;28;20133;-85
2023/01/10 02:43:48;;;;;;;22.25;4.50;;;5.50;99.90;;;;;;4993028;28;20138;-85
2023/01/10 02:46:15;;;;;;;;;;;5.60;99.90;;;;;;4993232;28;20047;-85
2023/01/10 02:48:41;;;;;;;25.48;4.75;;;5.70;99.90;;;;;;4993022;28;19925;-85
2023/01/10 02:51:22;;;;;;;16.05;2.80;;;5.70;99.90;;;;;;4992779;28;20042;-85
2023/01/10 02:53:56;;;;;;;17.33;3.53;;;5.70;99.90;;;;;;4992697;28;20050;-86
2023/01/10 02:56:54;;;;;;;11.88;3.17;;;5.70;99.90;;;;;;4992941;28;20042;-86
2023/01/10 02:59:41;;;;;;;22.77;4.00;;;5.80;99.90;;;;;;4992568;28;20085;-87
2023/01/10 03:02:21;;;;;;;24.83;3.30;;;5.60;99.90;;;;;;4992487;28;20390;-87
2023/01/10 03:05:26;;;;;;;16.25;2.67;;;5.70;99.90;;;;;;4992973;28;20046;-87
2023/01/10 03:08:12;;;;;;;19.95;4.32;;;5.70;99.90;;;;;;4992016;28;20050;-87
2023/01/10 03:10:40;;;;;;;20.65;4.10;;;5.80;99.90;;;;;;4992736;28;20061;-87
2023/01/10 03:13:21;;;;;;;12.30;2.78;;;5.60;99.90;;;;;;4992348;28;20442;-87
2023/01/10 03:15:48;;;;;;;14.73;3.13;;;5.80;99.90;;;;;;4992752;28;20517;-87
2023/01/10 03:18:22;;;;;;;18.88;3.80;;;5.80;99.90;;;;;;4992556;28;20486;-87
2023/01/10 03:20:50;;;;;;;14.50;3.13;;;5.70;99.90;;;;;;4992370;28;20133;-87
2023/01/10 03:23:17;;;;;;;17.23;3.47;;;5.80;99.90;;;;;;4995249;28;20054;-87
2023/01/10 03:25:45;;;;;;;17.98;3.15;;;5.80;99.90;;;;;;4995806;28;20058;-87
2023/01/10 03:28:22;;;;;;;17.58;3.65;;;5.70;99.90;;;;;;4996102;28;20050;-87
2023/01/10 03:31:07;;;;;;;15.90;3.55;;;5.80;99.90;;;;;;4995731;28;20046;-87
2023/01/10 03:33:34;;;;;;;17.15;3.50;;;5.70;99.90;;;;;;4995880;28;20058;-87
2023/01/10 03:36:09;;;;;;;16.35;3.03;;;5.80;99.90;;;;;;4995744;28;20046;-87
2023/01/10 03:38:50;;;;;;;16.13;3.28;;;5.70;99.90;;;;;;4995679;28;20046;-87
2023/01/10 03:41:48;;;;;;;18.30;3.47;;;5.60;99.90;;;;;;4995785;28;20088;-86
2023/01/10 03:47:20;;;;;;;32.17;3.78;;;5.70;99.90;;;;;;4995466;28;20078;-87
2023/01/10 03:49:52;;;;;;;10.48;3.20;;;5.80;99.90;;;;;;4995337;28;20046;-87
2023/01/10 03:52:19;;;;;;;19.58;4.00;;;5.70;99.90;;;;;;4995500;28;20042;-86
2023/01/10 03:54:46;;;;;;;18.52;2.92;;;5.80;99.90;;;;;;4995342;28;20486;-86
2023/01/10 03:57:21;;;;;;;20.92;3.45;;;5.80;99.90;;;;;;4995616;28;20054;-87
2023/01/10 03:59:50;;;;;;;19.00;3.72;;;5.80;99.90;;;;;;4995134;28;20046;-86
2023/01/10 04:02:16;;;;;;;11.80;3.40;;;5.90;99.90;;;;;;4995142;28;20133;-86
2023/01/10 04:04:42;;;;;;;17.08;3.90;;;5.70;99.90;;;;;;4995178;28;20129;-87
2023/01/10 04:07:07;;;;;;;22.58;3.75;;;5.90;99.90;;;;;;4995124;28;20043;-87
2023/01/10 04:09:33;;;;;;;27.30;4.97;;;5.80;99.90;;;;;;4995179;28;20108;-87
2023/01/10 04:11:59;;;;;;;28.23;4.72;;;5.90;99.90;;;;;;4995092;28;20034;-87
2023/01/10 04:14:24;;;;;;;29.77;6.40;;;5.80;99.90;;;;;;4994773;28;20050;-87
2023/01/10 04:16:50;;;;;;;27.10;4.93;;;5.90;99.90;;;;;;4994838;28;20050;-87
2023/01/10 04:19:16;;;;;;;29.48;5.13;;;5.90;99.90;;;;;;4995055;28;20525;-87
2023/01/10 04:21:41;;;;;;;29.85;4.72;;;6.00;99.90;;;;;;4994683;28;20078;-87
2023/01/10 04:24:07;;;;;;;23.73;6.00;;;5.90;99.90;;;;;;4994519;28;20141;-87
2023/01/10 04:26:33;;;;;;;35.60;6.82;;;6.00;99.90;;;;;;4994764;28;20101;-87
2023/01/10 04:28:58;;;;;;;30.63;5.45;;;6.00;99.90;;;;;;4994563;28;20479;-87
2023/01/10 04:31:25;;;;;;;33.42;6.30;;;5.80;99.90;;;;;;4994836;28;20046;-86
2023/01/10 04:33:51;;;;;;;25.30;5.88;;;6.00;99.90;;;;;;4993594;28;20109;-87
2023/01/10 04:36:17;;;;;;;21.77;6.00;;;6.10;99.90;;;;;;4994805;28;20046;-87
2023/01/10 04:38:42;;;;;;;27.80;4.95;;;6.10;99.90;;;;;;4994430;28;20050;-87
2023/01/10 04:41:08;;;;;;;42.03;8.70;;;5.90;99.90;;;;;;4994716;28;20482;-87
2023/01/10 04:43:34;;;;;;;39.95;7.55;;;6.00;99.90;;;;;;4994553;28;20478;-87
2023/01/10 04:46:00;;;;;;;33.40;5.65;;;6.00;99.90;;;;;;4994525;28;20115;-87
2023/01/10 04:48:26;;;;;;;34.28;9.45;;;5.90;99.90;;;;;;4994216;28;20121;-87
2023/01/10 04:50:52;;;;;;;51.00;8.57;;;6.00;99.90;;;;;;4994279;28;20483;-87
2023/01/10 04:53:19;;;;;;;38.78;7.45;;;5.90;99.90;;;;;;4994459;28;20406;-87
2023/01/10 04:55:45;;;;;;;27.40;5.90;;;5.90;99.90;;;;;;4994204;28;20046;-87
2023/01/10 04:58:11;;;;;;;33.72;7.47;;;6.00;99.90;;;;;;4994222;28;20128;-87
2023/01/10 05:00:37;;;;;;;37.13;5.80;;;5.90;99.90;;;;;;4994044;28;20050;-87
2023/01/10 05:03:03;;;;;;;36.33;7.07;;;6.00;99.90;;;;;;4994226;28;20441;-87
2023/01/10 05:05:30;;;;;;;45.35;7.18;;;5.80;99.90;;;;;;4994270;28;20050;-87
2023/01/10 05:07:55;;;;;;;42.67;7.32;;;5.80;99.90;;;;;;4994025;28;20046;-87
2023/01/10 05:10:21;;;;;;;38.30;7.50;;;5.90;99.90;;;;;;4993959;28;20046;-87
2023/01/10 05:12:46;;;;;;;43.90;9.88;;;6.00;99.90;;;;;;4993735;28;20046;-87
2023/01/10 05:15:12;;;;;;;53.13;7.32;;;6.00;99.90;;;;;;4993728;28;20482;-86
2023/01/10 05:17:38;;;;;;;36.33;9.27;;;5.90;99.90;;;;;;4993661;28;20042;-86
2023/01/10 05:20:05;;;;;;;40.25;8.40;;;6.00;99.90;;;;;;4993854;28;20053;-86
2023/01/10 05:22:30;;;;;;;38.25;7.47;;;6.00;99.90;;;;;;4993751;28;20046;-87
2023/01/10 05:24:56;;;;;;;46.45;8.45;;;6.00;99.90;;;;;;4993344;28;20050;-87
2023/01/10 05:27:22;;;;;;;34.30;7.35;;;6.00;99.90;;;;;;4993874;28;20093;-87
2023/01/10 05:29:47;;;;;;;32.78;6.97;;;5.90;99.90;;;;;;4993817;28;20050;-87
2023/01/10 05:32:13;;;;;;;28.73;5.95;;;6.00;99.90;;;;;;4993266;28;20497;-89
2023/01/10 05:34:39;;;;;;;35.08;7.25;;;5.90;99.90;;;;;;4993414;28;20050;-89
2023/01/10 05:37:04;;;;;;;36.40;6.85;;;5.80;99.90;;;;;;4993831;28;20125;-88
2023/01/10 05:39:30;;;;;;;38.08;8.30;;;5.80;99.90;;;;;;4993492;28;20212;-89
2023/01/10 05:41:55;;;;;;;30.88;5.82;;;5.90;99.90;;;;;;4993547;28;20050;-88
2023/01/10 05:44:21;;;;;;;39.28;6.68;;;5.90;99.90;;;;;;4993056;28;20057;-88
2023/01/10 05:46:47;;;;;;;45.00;7.13;;;5.90;99.90;;;;;;4993216;28;20061;-88
2023/01/10 05:49:12;;;;;;;27.65;6.72;;;5.80;99.90;;;;;;4993688;28;20049;-88
2023/01/10 05:51:38;;;;;;;24.33;5.80;;;5.90;99.90;;;;;;4993321;28;20474;-88
2023/01/10 05:54:04;;;;;;;44.80;7.65;;;5.90;99.90;;;;;;4993175;28;20042;-88
2023/01/10 05:56:29;;;;;;;40.83;6.22;;;5.90;99.90;;;;;;4993274;28;20053;-88
2023/01/10 05:58:55;;;;;;;41.05;7.30;;;5.90;99.90;;;;;;4993119;28;20050;-88
2023/01/10 06:01:21;;;;;;;49.03;7.85;;;5.70;99.90;;;;;;4993058;28;20073;-87
2023/01/10 06:03:47;;;;;;;35.88;6.25;;;5.90;99.90;;;;;;4993112;28;20046;-87
2023/01/10 06:06:13;;;;;;;46.15;7.20;;;5.80;99.90;;;;;;4993137;28;20038;-87
2023/01/10 06:08:39;;;;;;;30.80;6.80;;;5.70;99.90;;;;;;4993101;28;20045;-86
2023/01/10 06:11:06;;;;;;;54.10;7.93;;;5.70;99.90;;;;;;4993161;28;20556;-87
2023/01/10 06:13:32;;;;;;;30.80;6.18;;;5.70;99.90;;;;;;4992816;28;20512;-87
2023/01/10 06:15:58;;;;;;;40.40;5.97;;;5.70;99.90;;;;;;4992788;28;20130;-86
2023/01/10 06:18:23;;;;;;;28.48;7.78;;;5.70;99.90;;;;;;4992988;28;20129;-87
2023/01/10 06:20:49;;;;;;;35.25;6.20;;;5.70;99.90;;;;;;4993195;28;20046;-87
2023/01/10 06:23:15;;;;;;;33.20;6.93;;;5.60;99.90;;;;;;4992782;28;20089;-87
2023/01/10 06:25:41;;;;;;;34.95;6.85;;;5.50;99.90;;;;;;4992843;28;20142;-87
2023/01/10 06:28:12;;;;;;;29.25;6.15;;;5.50;99.90;;;;;;4993074;28;20057;-87
2023/01/10 06:30:40;;;;;;;25.23;6.20;;;5.50;99.90;;;;;;4992917;28;20055;-87
2023/01/10 06:33:07;;;;;;;34.78;5.43;;;5.50;99.90;;;;;;4992784;28;20554;-87
2023/01/10 06:35:33;;;;;;;31.45;5.20;;;5.40;99.90;;;;;;4993101;28;20509;-87
2023/01/10 06:37:59;;;;;;;26.80;5.43;;;5.40;99.90;;;;;;4993309;28;20043;-87
2023/01/10 06:40:25;;;;;;;24.50;4.80;;;5.30;99.90;;;;;;4992712;28;20104;-88
2023/01/10 06:42:51;;;;;;;32.75;5.90;;;5.20;99.90;;;;;;4992949;28;20049;-88
2023/01/10 06:45:17;;;;;;;23.02;4.60;;;5.30;99.90;;;;;;4992962;28;20043;-88
2023/01/10 06:47:43;;;;;;;22.95;4.35;;;5.10;99.90;;;;;;4992983;28;20045;-88
2023/01/10 06:50:09;;;;;;;22.48;4.05;;;5.10;99.90;;;;;;4992749;28;20046;-88
2023/01/10 06:52:35;;;;;;;30.73;4.60;;;5.10;99.90;;;;;;4992525;28;20034;-88
2023/01/10 06:55:00;;;;;;;61.50;7.72;;;5.00;99.90;;;;;;4992466;28;20050;-88
2023/01/10 06:57:27;;;;;;;24.67;4.43;;;5.10;99.90;;;;;;4994736;28;20093;-87
2023/01/10 06:59:53;;;;;;;26.50;5.95;;;5.00;99.90;;;;;;4996658;28;20486;-87
2023/01/10 07:02:19;;;;;;;31.45;4.60;;;5.10;99.90;;;;;;4996451;28;20046;-87
2023/01/10 07:04:44;;;;;;;28.52;4.47;;;5.00;99.90;;;;;;4996248;28;20054;-87
2023/01/10 07:07:10;;;;;;;33.47;5.43;;;4.90;99.90;;;;;;4996510;28;20042;-87
2023/01/10 07:09:35;;;;;;;26.10;5.43;;;5.10;99.90;;;;;;4996146;28;20050;-87
2023/01/10 07:12:01;;;;;;;26.90;5.32;;;5.00;99.90;;;;;;4996326;28;20101;-87
2023/01/10 07:14:27;;;;;;;45.75;6.90;;;5.00;99.90;;;;;;4996033;28;20054;-86
2023/01/10 07:16:52;;;;;;;33.72;6.85;;;5.10;99.90;;;;;;4996363;28;20050;-86
2023/01/10 07:19:18;;;;;;;36.58;5.90;;;5.10;99.90;;;;;;4996253;28;20050;-88
2023/01/10 07:21:44;;;;;;;39.15;5.25;;;5.20;99.90;;;;;;4995809;28;20486;-88
2023/01/10 07:24:10;;;;;;;25.90;6.25;;;5.20;99.90;;;;;;4995889;28;20112;-89
2023/01/10 07:26:36;;;;;;;28.58;4.97;;;5.20;99.90;;;;;;4995881;28;20492;-88
2023/01/10 07:29:01;;;;;;;36.58;6.65;;;5.20;99.90;;;;;;4995808;28;20042;-87
2023/01/10 07:31:27;;;;;;;29.92;5.90;;;5.20;99.90;;;;;;4995857;28;20489;-88
2023/01/10 07:33:53;;;;;;;39.35;6.97;;;5.40;99.90;;;;;;4995904;28;20038;-87
2023/01/10 07:36:19;;;;;;;42.55;9.18;;;5.30;99.90;;;;;;4994754;28;20410;-87
2023/01/10 07:38:45;;;;;;;35.05;7.50;;;5.30;99.90;;;;;;4995352;28;20042;-87
2023/01/10 07:41:10;;;;;;;44.47;6.65;;;5.60;99.90;;;;;;4995448;28;20054;-86
2023/01/10 07:43:36;;;;;;;44.63;7.53;;;5.60;99.90;;;;;;4995669;28;20085;-86
2023/01/10 07:46:07;;;;;;;43.75;7.78;;;5.60;99.90;;;;;;4995282;28;20046;-86
2023/01/10 07:48:32;;;;;;;30.20;6.88;;;5.50;99.90;;;;;;4995501;28;20137;-86
2023/01/10 07:51:00;;;;;;;42.03;8.35;;;5.50;99.90;;;;;;4995187;28;20130;-87
2023/01/10 07:53:27;;;;;;;37.22;7.35;;;5.60;99.90;;;;;;4995116;28;20422;-87
2023/01/10 07:55:53;;;;;;;44.03;8.63;;;5.50;99.90;;;;;;4995065;28;20057;-86
2023/01/10 07:58:19;;;;;;;50.78;9.43;;;5.40;99.90;;;;;;4995340;28;20412;-86
2023/01/10 08:00:45;;;;;;;42.25;7.63;;;5.50;99.90;;;;;;4995267;28;20042;-86
2023/01/10 08:03:11;;;;;;;49.45;8.70;;;5.50;99.90;;;;;;4995228;28;20254;-86
2023/01/10 08:05:37;;;;;;;42.40;8.15;;;5.50;99.90;;;;;;4994696;28;20052;-84
2023/01/10 08:08:11;;;;;;;56.42;8.32;;;5.40;99.90;;;;;;4994877;28;20049;-86
2023/01/10 08:10:38;;;;;;;51.90;8.15;;;5.30;99.90;;;;;;4995229;28;20050;-86
2023/01/10 08:13:04;;;;;;;68.53;12.70;;;5.50;99.90;;;;;;4997048;28;20053;-85
2023/01/10 08:15:30;;;;;;;49.67;8.38;;;5.50;99.90;;;;;;5005462;28;20046;-86
2023/01/10 08:18:02;;;;;;;45.33;8.48;;;5.60;99.90;;;;;;5014341;28;20068;-85
2023/01/10 08:20:29;;;;;;;51.75;8.75;;;5.70;99.90;;;;;;5014022;28;20558;-85
2023/01/10 08:22:58;;;;;;;49.72;9.68;;;5.70;99.90;;;;;;5008621;28;20057;-87
2023/01/10 08:25:25;;;;;;;62.53;10.50;;;5.60;99.90;;;;;;4995005;28;20042;-86
2023/01/10 08:27:51;;;;;;;65.38;10.75;;;5.80;99.90;;;;;;4994702;28;20398;-86
2023/01/10 08:30:16;;;;;;;53.05;9.02;;;5.80;99.90;;;;;;4994435;28;20046;-87
2023/01/10 08:32:42;;;;;;;59.65;11.48;;;5.80;99.90;;;;;;4994661;28;20046;-85
2023/01/10 08:35:08;;;;;;;53.20;9.77;;;5.70;99.90;;;;;;4994271;28;20457;-88
2023/01/10 08:37:34;;;;;;;59.97;9.88;;;5.80;99.90;;;;;;5010645;28;20038;-86
2023/01/10 08:40:00;;;;;;;57.42;11.45;;;5.80;99.90;;;;;;4994595;28;20553;-86
2023/01/10 08:42:26;;;;;;;50.63;10.18;;;5.80;99.90;;;;;;4994565;28;20135;-86
2023/01/10 08:44:51;;;;;;;67.78;11.60;;;5.90;99.90;;;;;;4994118;28;20402;-86
2023/01/10 08:47:17;;;;;;;63.92;10.35;;;5.80;99.90;;;;;;4994214;28;20125;-86
2023/01/10 08:49:43;;;;;;;56.78;10.30;;;5.80;99.90;;;;;;4994351;28;20046;-89
2023/01/10 08:52:08;;;;;;;68.95;12.05;;;6.00;99.90;;;;;;5001656;28;20046;-87
2023/01/10 08:54:34;;;;;;;55.47;10.30;;;6.00;99.90;;;;;;4997324;28;20081;-88
2023/01/10 08:57:00;;;;;;;49.80;10.90;;;6.00;99.90;;;;;;4994184;28;20050;-87
2023/01/10 08:59:25;;;;;;;63.42;12.25;;;5.90;99.90;;;;;;4994075;28;20078;-90
2023/01/10 09:01:51;;;;;;;56.55;10.57;;;6.00;99.90;;;;;;4993720;28;20069;-85
2023/01/10 09:04:17;;;;;;;58.45;10.55;;;6.10;99.90;;;;;;4993619;28;20046;-86
2023/01/10 09:06:42;;;;;;;57.80;10.85;;;6.10;99.90;;;;;;4993629;28;20042;-86
2023/01/10 09:09:08;;;;;;;57.40;11.90;;;6.00;99.90;;;;;;4993657;28;20058;-85
2023/01/10 09:11:35;;;;;;;53.13;11.32;;;6.20;99.90;;;;;;4993559;28;20085;-86
2023/01/10 09:14:00;;;;;;;64.57;12.98;;;6.20;99.90;;;;;;4993437;28;20077;-85
2023/01/10 09:16:26;;;;;;;67.30;11.00;;;6.20;99.90;;;;;;4993491;28;20517;-86
2023/01/10 09:18:53;;;;;;;54.03;9.93;;;6.20;99.90;;;;;;4993381;28;20097;-86
2023/01/10 09:21:19;;;;;;;57.80;11.18;;;6.30;99.90;;;;;;4994749;28;20050;-91
2023/01/10 09:23:44;;;;;;;50.88;10.57;;;6.40;99.90;;;;;;4994202;28;20081;-90
2023/01/10 09:26:10;;;;;;;52.92;9.10;;;6.40;99.90;;;;;;5000765;28;20046;-90
2023/01/10 09:28:36;;;;;;;47.03;9.05;;;6.20;99.90;;;;;;5027851;28;20048;-90
2023/01/10 09:31:03;;;;;;;53.50;11.43;;;6.20;99.90;;;;;;5013309;28;20084;-91
2023/01/10 09:33:29;;;;;;;47.50;11.27;;;6.30;99.90;;;;;;5013499;28;20084;-90
2023/01/10 09:35:57;;;;;;;47.97;11.15;;;6.30;99.90;;;;;;5013245;28;20085;-90
2023/01/10 09:38:23;;;;;;;53.97;12.50;;;6.30;99.90;;;;;;5012869;28;20102;-90
2023/01/10 09:40:51;;;;;;;52.03;10.00;;;6.30;99.90;;;;;;5013045;28;20077;-90
2023/01/10 09:43:25;;;;;;;41.55;9.75;;;6.20;99.90;;;;;;5012655;28;20072;-90
2023/01/10 09:46:20;;;;;;;43.38;10.90;;;6.40;99.90;;;;;;5012798;28;20050;-90
2023/01/10 09:49:05;;;;;;;50.00;10.32;;;6.40;99.90;;;;;;5013123;28;20497;-90
2023/01/10 09:51:39;;;;;;;41.95;8.27;;;6.40;99.90;;;;;;5012853;28;20413;-87
2023/01/10 09:54:29;;;;;;;43.22;7.93;;;6.30;99.90;;;;;;5012784;28;20034;-90
2023/01/10 09:56:57;;;;;;;62.15;10.48;;;6.40;99.90;;;;;;5011841;28;20104;-89
2023/01/10 09:59:24;;;;;;;43.58;8.35;;;6.40;99.90;;;;;;5012742;28;20042;-90
2023/01/10 10:02:02;;;;;;;51.47;9.57;;;6.50;99.90;;;;;;5012739;28;20080;-90
2023/01/10 10:04:34;;;;;;;39.55;9.30;;;6.40;99.90;;;;;;5012934;28;20041;-91
2023/01/10 10:07:02;;;;;;;62.60;9.98;;;6.60;99.90;;;;;;5012796;28;20073;-91
2023/01/10 10:09:31;;;;;;;48.50;10.45;;;6.50;99.90;;;;;;5012698;28;20077;-89
2023/01/10 10:12:16;;;;;;;34.40;7.35;;;6.50;99.90;;;;;;5012671;28;20046;-90
2023/01/10 10:14:47;;;;;;;48.65;8.70;;;6.60;99.90;;;;;;5012432;28;20064;-90
2023/01/10 10:17:42;;;;;;;35.28;7.85;;;6.60;99.90;;;;;;5012703;28;20042;-90
2023/01/10 10:20:26;;;;;;;32.28;7.13;;;6.60;99.90;;;;;;5013000;28;20083;-91
2023/01/10 10:22:55;;;;;;;42.42;8.00;;;6.60;99.90;;;;;;5012075;28;20081;-90
2023/01/10 10:25:42;;;;;;;41.70;7.80;;;6.70;99.90;;;;;;5003218;28;20096;-90
2023/01/10 10:28:20;;;;;;;38.20;6.47;;;6.70;99.90;;;;;;5004710;28;20117;-91
2023/01/10 10:31:03;;;;;;;38.50;6.75;;;6.70;99.90;;;;;;5000775;28;20038;-90
2023/01/10 10:34:09;;;;;;;43.80;7.90;;;6.80;99.90;;;;;;5019715;28;20543;-90
2023/01/10 10:36:49;;;;;;;43.53;7.60;;;6.70;99.90;;;;;;4985442;28;20054;-90
2023/01/10 10:39:22;;;;;;;45.75;9.48;;;6.80;99.90;;;;;;5027981;28;20046;-90
2023/01/10 10:41:51;;;;;;;42.25;9.00;;;6.80;99.90;;;;;;5015472;28;20487;-91
2023/01/10 10:44:26;;;;;;;33.50;7.30;;;6.80;99.90;;;;;;5014951;28;20134;-90
2023/01/10 10:46:52;;;;;;;51.85;8.48;;;6.90;99.90;;;;;;5014490;28;20495;-89
2023/01/10 10:49:58;;;;;;;64.68;10.48;;;6.90;99.90;;;;;;5014426;28;20046;-87
2023/01/10 10:52:33;;;;;;;53.45;9.13;;;6.80;99.90;;;;;;5014026;28;20042;-90
2023/01/10 10:54:59;;;;;;;39.70;7.60;;;6.90;99.90;;;;;;5013938;28;20050;-90
2023/01/10 10:57:28;;;;;;;56.33;11.15;;;6.90;99.90;;;;;;5013440;28;20050;-91
2023/01/10 10:59:54;;;;;;;36.88;7.78;;;6.90;99.90;;;;;;5015686;28;20081;-92
2023/01/10 11:02:24;;;;;;;49.10;8.40;;;7.00;99.90;;;;;;5029796;28;20128;-89
2023/01/10 11:04:52;;;;;;;48.92;8.38;;;7.00;99.90;;;;;;5034966;28;20037;-88
2023/01/10 11:07:18;;;;;;;41.90;9.15;;;7.00;99.90;;;;;;5033337;28;20094;-89
2023/01/10 11:12:17;;;;;;;43.75;7.15;;;7.00;99.90;;;;;;5025780;28;20049;-85
2023/01/10 11:14:46;;;;;;;44.22;8.57;;;7.20;99.90;;;;;;5013173;28;20508;-85
2023/01/10 11:17:26;;;;;;;53.72;8.88;;;7.10;99.90;;;;;;5014372;28;20045;-86
2023/01/10 11:20:01;;;;;;;51.45;7.88;;;7.10;99.90;;;;;;5030975;28;20045;-85
2023/01/10 11:22:32;;;;;;;47.22;8.77;;;7.10;99.90;;;;;;5034210;28;20096;-85
2023/01/10 11:25:00;;;;;;;43.05;8.30;;;7.10;99.90;;;;;;4996282;28;1101859;-85
2023/01/10 11:27:35;;;;;;;51.50;7.85;;;7.20;99.90;;;;;;5034239;28;20053;-85
2023/01/10 11:30:03;;;;;;;34.10;7.53;;;7.10;99.90;;;;;;5034895;28;20042;-85
2023/01/10 11:32:36;;;;;;;43.45;7.38;;;7.20;99.90;;;;;;5035049;28;20378;-88
2023/01/10 11:35:05;;;;;;;;;;;7.20;99.90;;;;;;5034521;28;20059;-85
2023/01/10 11:37:33;;;;;;;48.80;8.25;;;7.10;99.90;;;;;;5035945;28;19967;-85
2023/01/10 11:40:22;;;;;;;45.50;9.38;;;7.20;99.90;;;;;;5034670;28;20123;-85
2023/01/10 11:42:48;;;;;;;35.20;7.82;;;7.20;99.90;;;;;;5035724;28;20049;-85
2023/01/10 11:45:17;;;;;;;54.28;9.10;;;7.10;99.90;;;;;;5034548;28;20033;-85
2023/01/10 11:47:47;;;;;;;59.10;8.52;;;7.20;99.90;;;;;;5034433;28;20588;-85
2023/01/10 11:50:26;;;;;;;54.92;7.45;;;7.20;99.90;;;;;;5034457;28;20033;-84
2023/01/10 11:52:53;;;;;;;59.85;8.10;;;7.20;99.90;;;;;;5034502;28;20084;-85
2023/01/10 11:55:28;;;;;;;46.03;9.30;;;7.20;99.90;;;;;;5034232;28;20408;-85
2023/01/10 11:58:08;;;;;;;47.45;8.55;;;7.20;99.90;;;;;;5034603;28;20038;-85
2023/01/10 12:00:47;;;;;;;50.50;8.10;;;7.10;99.90;;;;;;5034559;28;20047;-83
2023/01/10 12:03:27;;;;;;;46.28;8.93;;;7.20;99.90;;;;;;5034188;28;20049;-84
2023/01/10 12:06:02;;;;;;;67.63;10.88;;;7.10;99.90;;;;;;5034376;28;20081;-85
2023/01/10 12:08:32;;;;;;;69.40;11.20;;;7.20;99.90;;;;;;5034342;28;20515;-84
2023/01/10 12:11:21;;;;;;;47.63;10.60;;;7.20;99.90;;;;;;5033321;28;20137;-84
2023/01/10 12:13:51;;;;;;;35.40;6.45;;;7.10;99.90;;;;;;5033884;28;20128;-85
2023/01/10 12:16:18;;;;;;;57.10;10.43;;;7.00;99.90;;;;;;5033951;28;20099;-86
2023/01/10 12:18:45;;;;;;;65.70;13.05;;;7.00;99.90;;;;;;5034161;28;20132;-85
2023/01/10 12:21:14;;;;;;;47.50;11.00;;;7.10;99.90;;;;;;5033852;28;20081;-87
2023/01/10 12:23:43;;;;;;;61.03;13.82;;;6.90;99.90;;;;;;5033815;28;20108;-86
2023/01/10 12:26:12;;;;;;;67.85;14.27;;;7.00;99.90;;;;;;5033749;28;20452;-86
2023/01/10 12:28:42;;;;;;;69.85;15.32;;;7.00;99.90;;;;;;5033658;28;20052;-85
2023/01/10 12:31:13;;;;;;;69.15;18.13;;;6.90;99.90;;;;;;5033798;28;20088;-85
2023/01/10 12:33:47;;;;;;;63.60;14.75;;;7.00;99.90;;;;;;5033599;28;20081;-86
2023/01/10 12:36:40;;;;;;;72.75;16.65;;;7.00;99.90;;;;;;5033560;28;20140;-85
2023/01/10 12:39:22;;;;;;;59.25;13.68;;;6.90;99.90;;;;;;5033836;28;20140;-85
2023/01/10 12:44:53;;;;;;;54.00;15.43;;;6.90;99.90;;;;;;5033563;28;20100;-86
2023/01/10 12:47:41;;;;;;;64.53;15.73;;;6.90;99.90;;;;;;5033452;28;20037;-85
2023/01/10 12:50:20;;;;;;;86.18;19.15;;;7.00;99.90;;;;;;5033663;28;20088;-86
2023/01/10 12:53:02;;;;;;;69.25;17.63;;;6.90;99.90;;;;;;5033200;28;20042;-85
2023/01/10 12:55:44;;;;;;;77.85;19.42;;;6.80;99.90;;;;;;5032478;28;20100;-85
2023/01/10 12:58:20;;;;;;;83.80;22.25;;;6.70;99.90;;;;;;5033272;28;20037;-82
2023/01/10 13:00:51;;;;;;;62.45;18.15;;;6.80;99.90;;;;;;5033371;28;20500;-84
2023/01/10 13:03:23;;;;;;;71.85;19.13;;;6.70;99.90;;;;;;5033147;28;20041;-83
2023/01/10 13:05:50;;;;;;;70.93;20.27;;;6.70;99.90;;;;;;5033265;28;20099;-85
2023/01/10 13:08:25;;;;;;;71.00;20.58;;;6.80;99.90;;;;;;5032913;28;20408;-83
2023/01/10 13:10:54;;;;;;;68.95;17.42;;;6.70;99.90;;;;;;5032959;28;20060;-92
2023/01/10 13:13:34;;;;;;;67.57;18.95;;;6.70;99.90;;;;;;5032836;28;20050;-88
2023/01/10 13:16:21;;;;;;;62.75;16.55;;;6.70;99.90;;;;;;5033247;28;20045;-89